SAS4044 ENZV-ENGM
Flight info
| Callsign | SAS4044 |
|---|---|
| Flight time | 0h 34m |
| Altitude | 31000 |
| Route | UPLEV DCT ADOPI |
| Aircraft | A320/M-SDE3FGHIRWY/LB1 |
Departure
| Time | 2026-05-09 20:44 |
|---|---|
| Airport | Stavanger Airport, Sola (ENZV) |
Arrival
| Time | 2026-05-09 21:18 |
|---|---|
| Airport | Oslo-Gardermoen International Airport (ENGM) |
| Time | Latitude | Longitude | Altitude | Speed | Heading |
|---|---|---|---|---|---|
| 2026-05-09 20:27 | 58.88278 | 5.63096 | 26 ft | 0 kts | 254° |
| 2026-05-09 20:28 | 58.88278 | 5.63097 | 25 ft | 0 kts | 254° |
| 2026-05-09 20:37 | 58.88279 | 5.63100 | 29 ft | 1 kts | 254° |
| 2026-05-09 20:37 | 58.88283 | 5.63132 | 24 ft | 3 kts | 254° |
| 2026-05-09 20:37 | 58.88288 | 5.63164 | 25 ft | 1 kts | 254° |
| 2026-05-09 20:38 | 58.88289 | 5.63168 | 31 ft | 0 kts | 254° |
| 2026-05-09 20:40 | 58.88287 | 5.63162 | 25 ft | 2 kts | 246° |
| 2026-05-09 20:40 | 58.88270 | 5.63178 | 29 ft | 4 kts | 130° |
| 2026-05-09 20:40 | 58.88268 | 5.63262 | 29 ft | 8 kts | 81° |
| 2026-05-09 20:41 | 58.88263 | 5.63398 | 31 ft | 14 kts | 133° |
| 2026-05-09 20:41 | 58.88142 | 5.63432 | 30 ft | 20 kts | 178° |
| 2026-05-09 20:41 | 58.87993 | 5.63411 | 31 ft | 22 kts | 200° |
| 2026-05-09 20:41 | 58.87846 | 5.63293 | 31 ft | 22 kts | 195° |
| 2026-05-09 20:42 | 58.87752 | 5.63303 | 31 ft | 15 kts | 186° |
| 2026-05-09 20:42 | 58.87623 | 5.63296 | 31 ft | 20 kts | 179° |
| 2026-05-09 20:42 | 58.87476 | 5.63299 | 31 ft | 22 kts | 179° |
| 2026-05-09 20:42 | 58.87322 | 5.63303 | 31 ft | 23 kts | 179° |
| 2026-05-09 20:43 | 58.87159 | 5.63307 | 32 ft | 24 kts | 179° |
| 2026-05-09 20:43 | 58.87009 | 5.63389 | 32 ft | 23 kts | 115° |
| 2026-05-09 20:43 | 58.87031 | 5.63649 | 35 ft | 19 kts | 67° |
| 2026-05-09 20:43 | 58.87136 | 5.63798 | 35 ft | 24 kts | 2° |
| 2026-05-09 20:44 | 58.87455 | 5.63789 | 34 ft | 78 kts | 359° |
| 2026-05-09 20:44 | 58.88199 | 5.63769 | 32 ft | 133 kts | 359° |
| 2026-05-09 20:44 | 58.89253 | 5.63730 | 244 ft | 156 kts | 359° |
| 2026-05-09 20:44 | 58.90315 | 5.63770 | 874 ft | 158 kts | 9° |
| 2026-05-09 20:45 | 58.91316 | 5.64691 | 1386 ft | 170 kts | 45° |
| 2026-05-09 20:45 | 58.91891 | 5.66883 | 1603 ft | 199 kts | 72° |
| 2026-05-09 20:45 | 58.92380 | 5.69558 | 1910 ft | 222 kts | 58° |
| 2026-05-09 20:45 | 58.93339 | 5.72089 | 2365 ft | 244 kts | 50° |
| 2026-05-09 20:46 | 58.94409 | 5.74713 | 3210 ft | 251 kts | 50° |
| 2026-05-09 20:46 | 58.95502 | 5.77371 | 4149 ft | 254 kts | 49° |
| 2026-05-09 20:46 | 58.96613 | 5.80068 | 5075 ft | 258 kts | 50° |
| 2026-05-09 20:46 | 58.97743 | 5.82819 | 5939 ft | 264 kts | 50° |
| 2026-05-09 20:47 | 58.98897 | 5.85640 | 6758 ft | 270 kts | 51° |
| 2026-05-09 20:47 | 59.00079 | 5.88535 | 7529 ft | 277 kts | 51° |
| 2026-05-09 20:47 | 59.01288 | 5.91504 | 8308 ft | 283 kts | 50° |
| 2026-05-09 20:47 | 59.02524 | 5.94539 | 9066 ft | 290 kts | 51° |
| 2026-05-09 20:48 | 59.03782 | 5.97643 | 9835 ft | 296 kts | 51° |
| 2026-05-09 20:48 | 59.05070 | 6.00831 | 10446 ft | 307 kts | 51° |
| 2026-05-09 20:48 | 59.06438 | 6.04221 | 10669 ft | 330 kts | 51° |
| 2026-05-09 20:48 | 59.07885 | 6.07804 | 10881 ft | 351 kts | 51° |
| 2026-05-09 20:49 | 59.09412 | 6.11588 | 11418 ft | 359 kts | 51° |
| 2026-05-09 20:49 | 59.10962 | 6.15439 | 12068 ft | 365 kts | 52° |
| 2026-05-09 20:49 | 59.12536 | 6.19364 | 12731 ft | 370 kts | 52° |
| 2026-05-09 20:49 | 59.14125 | 6.23333 | 13368 ft | 374 kts | 52° |
| 2026-05-09 20:50 | 59.15737 | 6.27361 | 14018 ft | 380 kts | 53° |
| 2026-05-09 20:50 | 59.17368 | 6.31442 | 14601 ft | 384 kts | 53° |
| 2026-05-09 20:50 | 59.19024 | 6.35586 | 15152 ft | 389 kts | 53° |
| 2026-05-09 20:50 | 59.20700 | 6.39782 | 15699 ft | 394 kts | 53° |
| 2026-05-09 20:51 | 59.22394 | 6.44035 | 16233 ft | 399 kts | 53° |
| 2026-05-09 20:51 | 59.24102 | 6.48336 | 16798 ft | 404 kts | 53° |
| 2026-05-09 20:51 | 59.25832 | 6.52704 | 17334 ft | 408 kts | 53° |
| 2026-05-09 20:51 | 59.27582 | 6.57127 | 17907 ft | 413 kts | 53° |
| 2026-05-09 20:52 | 59.29352 | 6.61594 | 18471 ft | 418 kts | 53° |
| 2026-05-09 20:52 | 59.31145 | 6.66121 | 18932 ft | 423 kts | 53° |
| 2026-05-09 20:52 | 59.32954 | 6.70707 | 19425 ft | 428 kts | 53° |
| 2026-05-09 20:52 | 59.34784 | 6.75354 | 19930 ft | 433 kts | 53° |
| 2026-05-09 20:53 | 59.36631 | 6.80063 | 20427 ft | 438 kts | 53° |
| 2026-05-09 20:53 | 59.38499 | 6.84842 | 20918 ft | 444 kts | 53° |
| 2026-05-09 20:53 | 59.40386 | 6.89680 | 21393 ft | 449 kts | 53° |
| 2026-05-09 20:53 | 59.42290 | 6.94568 | 21857 ft | 454 kts | 53° |
| 2026-05-09 20:54 | 59.44217 | 6.99525 | 22311 ft | 458 kts | 53° |
| 2026-05-09 20:54 | 59.46134 | 7.04464 | 22743 ft | 463 kts | 53° |
| 2026-05-09 20:54 | 59.48094 | 7.09526 | 23176 ft | 468 kts | 53° |
| 2026-05-09 20:54 | 59.50072 | 7.14651 | 23595 ft | 472 kts | 53° |
| 2026-05-09 20:55 | 59.52070 | 7.19838 | 23962 ft | 477 kts | 53° |
| 2026-05-09 20:55 | 59.54077 | 7.25061 | 24319 ft | 481 kts | 53° |
| 2026-05-09 20:55 | 59.56102 | 7.30340 | 24666 ft | 484 kts | 53° |
| 2026-05-09 20:55 | 59.58139 | 7.35665 | 25026 ft | 488 kts | 53° |
| 2026-05-09 20:56 | 59.60186 | 7.41025 | 25369 ft | 491 kts | 53° |
| 2026-05-09 20:56 | 59.64313 | 7.51889 | 26041 ft | 498 kts | 53° |
| 2026-05-09 20:56 | 59.66399 | 7.57395 | 26364 ft | 501 kts | 53° |
| 2026-05-09 20:57 | 59.68475 | 7.62953 | 26697 ft | 504 kts | 57° |
| 2026-05-09 20:57 | 59.70157 | 7.69036 | 27019 ft | 504 kts | 66° |
| 2026-05-09 20:57 | 59.71695 | 7.75304 | 27307 ft | 508 kts | 66° |
| 2026-05-09 20:57 | 59.73230 | 7.81621 | 27661 ft | 511 kts | 67° |
| 2026-05-09 20:58 | 59.74768 | 7.88004 | 27998 ft | 514 kts | 67° |
| 2026-05-09 20:58 | 59.76310 | 7.94430 | 28330 ft | 517 kts | 67° |
| 2026-05-09 20:58 | 59.77839 | 8.00806 | 28617 ft | 520 kts | 67° |
| 2026-05-09 20:58 | 59.79398 | 8.07313 | 28904 ft | 524 kts | 67° |
| 2026-05-09 20:59 | 59.80968 | 8.13874 | 29209 ft | 526 kts | 67° |
| 2026-05-09 20:59 | 59.82538 | 8.20461 | 29528 ft | 529 kts | 67° |
| 2026-05-09 20:59 | 59.84107 | 8.27075 | 29963 ft | 528 kts | 67° |
| 2026-05-09 21:00 | 59.87240 | 8.40310 | 30756 ft | 528 kts | 67° |
| 2026-05-09 21:00 | 59.88801 | 8.46919 | 31048 ft | 527 kts | 67° |
| 2026-05-09 21:00 | 59.91906 | 8.60121 | 31095 ft | 525 kts | 68° |
| 2026-05-09 21:01 | 59.93442 | 8.66712 | 30502 ft | 526 kts | 68° |
| 2026-05-09 21:01 | 59.94977 | 8.73348 | 29703 ft | 526 kts | 68° |
| 2026-05-09 21:01 | 59.96502 | 8.79957 | 28987 ft | 523 kts | 68° |
| 2026-05-09 21:02 | 59.99528 | 8.93089 | 27479 ft | 518 kts | 68° |
| 2026-05-09 21:02 | 60.01027 | 8.99608 | 26730 ft | 515 kts | 68° |
| 2026-05-09 21:02 | 60.02517 | 9.06103 | 25976 ft | 513 kts | 68° |
| 2026-05-09 21:02 | 60.03996 | 9.12579 | 25238 ft | 510 kts | 68° |
| 2026-05-09 21:03 | 60.05459 | 9.19010 | 24494 ft | 507 kts | 68° |
| 2026-05-09 21:03 | 60.06911 | 9.25414 | 23757 ft | 504 kts | 68° |
| 2026-05-09 21:03 | 60.08350 | 9.31781 | 23086 ft | 497 kts | 68° |
| 2026-05-09 21:03 | 60.09770 | 9.38075 | 22342 ft | 492 kts | 67° |
| 2026-05-09 21:04 | 60.11146 | 9.44183 | 21668 ft | 485 kts | 68° |
| 2026-05-09 21:04 | 60.12521 | 9.50303 | 21020 ft | 477 kts | 68° |
| 2026-05-09 21:04 | 60.13875 | 9.56352 | 20264 ft | 473 kts | 68° |
| 2026-05-09 21:04 | 60.15206 | 9.62324 | 19615 ft | 465 kts | 68° |
| 2026-05-09 21:05 | 60.16516 | 9.68216 | 19001 ft | 458 kts | 68° |
| 2026-05-09 21:05 | 60.17804 | 9.74027 | 18415 ft | 451 kts | 68° |
| 2026-05-09 21:05 | 60.19069 | 9.79742 | 17758 ft | 444 kts | 68° |
| 2026-05-09 21:05 | 60.20313 | 9.85376 | 17117 ft | 439 kts | 68° |
| 2026-05-09 21:06 | 60.21540 | 9.90955 | 16511 ft | 434 kts | 68° |
| 2026-05-09 21:06 | 60.22749 | 9.96469 | 15901 ft | 429 kts | 68° |
| 2026-05-09 21:06 | 60.23944 | 10.01946 | 15340 ft | 425 kts | 68° |
| 2026-05-09 21:06 | 60.25120 | 10.07355 | 14791 ft | 420 kts | 68° |
| 2026-05-09 21:07 | 60.26285 | 10.12716 | 14241 ft | 415 kts | 68° |
| 2026-05-09 21:07 | 60.27437 | 10.18020 | 13625 ft | 411 kts | 68° |
| 2026-05-09 21:07 | 60.28575 | 10.23276 | 13000 ft | 406 kts | 68° |
| 2026-05-09 21:07 | 60.29697 | 10.28471 | 12363 ft | 402 kts | 68° |
| 2026-05-09 21:08 | 60.30801 | 10.33605 | 11733 ft | 397 kts | 68° |
| 2026-05-09 21:08 | 60.31890 | 10.38671 | 11099 ft | 392 kts | 68° |
| 2026-05-09 21:08 | 60.32954 | 10.43627 | 10486 ft | 388 kts | 68° |
| 2026-05-09 21:08 | 60.34016 | 10.48596 | 9843 ft | 383 kts | 68° |
| 2026-05-09 21:09 | 60.35062 | 10.53494 | 9177 ft | 379 kts | 68° |
| 2026-05-09 21:09 | 60.36098 | 10.58361 | 8518 ft | 375 kts | 68° |
| 2026-05-09 21:09 | 60.37122 | 10.63186 | 7874 ft | 372 kts | 68° |
| 2026-05-09 21:09 | 60.38132 | 10.67964 | 7233 ft | 368 kts | 68° |
| 2026-05-09 21:10 | 60.39133 | 10.72708 | 6624 ft | 365 kts | 68° |
| 2026-05-09 21:10 | 60.40124 | 10.77407 | 5971 ft | 362 kts | 68° |
| 2026-05-09 21:10 | 60.41093 | 10.82005 | 5587 ft | 343 kts | 68° |
| 2026-05-09 21:10 | 60.41987 | 10.86250 | 5464 ft | 314 kts | 68° |
| 2026-05-09 21:11 | 60.42808 | 10.90153 | 5330 ft | 290 kts | 68° |
| 2026-05-09 21:12 | 60.45393 | 11.02587 | 4993 ft | 247 kts | 71° |
| 2026-05-09 21:12 | 60.45749 | 11.05938 | 4781 ft | 242 kts | 92° |
| 2026-05-09 21:12 | 60.45490 | 11.09244 | 4471 ft | 236 kts | 114° |
| 2026-05-09 21:12 | 60.44709 | 11.12095 | 4144 ft | 230 kts | 134° |
| 2026-05-09 21:13 | 60.43594 | 11.14347 | 4001 ft | 227 kts | 140° |
| 2026-05-09 21:13 | 60.42484 | 11.16508 | 4003 ft | 216 kts | 140° |
| 2026-05-09 21:13 | 60.41385 | 11.18476 | 3998 ft | 207 kts | 153° |
| 2026-05-09 21:13 | 60.40068 | 11.19413 | 4004 ft | 199 kts | 178° |
| 2026-05-09 21:14 | 60.38714 | 11.19120 | 4005 ft | 196 kts | 198° |
| 2026-05-09 21:14 | 60.37410 | 11.18355 | 3957 ft | 192 kts | 198° |
| 2026-05-09 21:14 | 60.36158 | 11.17621 | 3746 ft | 183 kts | 198° |
| 2026-05-09 21:14 | 60.34948 | 11.16914 | 3512 ft | 179 kts | 198° |
| 2026-05-09 21:15 | 60.33760 | 11.16221 | 3271 ft | 176 kts | 198° |
| 2026-05-09 21:15 | 60.32598 | 11.15544 | 3028 ft | 172 kts | 198° |
| 2026-05-09 21:15 | 60.31460 | 11.14882 | 2800 ft | 168 kts | 198° |
| 2026-05-09 21:15 | 60.30352 | 11.14238 | 2573 ft | 162 kts | 198° |
| 2026-05-09 21:16 | 60.29303 | 11.13629 | 2341 ft | 151 kts | 198° |
| 2026-05-09 21:16 | 60.28343 | 11.13073 | 2177 ft | 139 kts | 198° |
| 2026-05-09 21:16 | 60.27433 | 11.12544 | 1979 ft | 134 kts | 197° |
| 2026-05-09 21:16 | 60.26544 | 11.12028 | 1784 ft | 133 kts | 197° |
| 2026-05-09 21:17 | 60.25656 | 11.11512 | 1564 ft | 132 kts | 197° |
| 2026-05-09 21:17 | 60.24773 | 11.10996 | 1371 ft | 133 kts | 196° |
| 2026-05-09 21:17 | 60.23901 | 11.10493 | 1197 ft | 132 kts | 195° |
| 2026-05-09 21:17 | 60.23021 | 11.09988 | 1022 ft | 132 kts | 195° |
| 2026-05-09 21:18 | 60.22141 | 11.09476 | 843 ft | 132 kts | 196° |
| 2026-05-09 21:18 | 60.21265 | 11.08970 | 685 ft | 127 kts | 197° |
| 2026-05-09 21:18 | 60.20568 | 11.08566 | 678 ft | 80 kts | 194° |
| 2026-05-09 21:18 | 60.20196 | 11.08352 | 677 ft | 38 kts | 196° |
| 2026-05-09 21:19 | 60.19887 | 11.08521 | 677 ft | 5 kts | 108° |